Search for airport 
image banner adimage banner adimage banner ad
image banner ad

1O5 - Montague-Yreka Rohrer Field

Located in Montague, United States

ICAO - 1O5, IATA -

Data provided by Airmate  

General information

Coordinates: N41°43'48" W122°32'40"
Elevation is 2528 feet MSL.
Magnetic variation is 15° East
View others Airports in California

Operational data

Special qualification required
Current time UTC:
Current local time:
Weather at : KSIY - Siskiyou County ( 9 km )
METAR: KSIY 221353Z AUTO 31004KT 10SM CLR 19/07 A2992 RMK AO2 SLP110 T01890067
View NOTAMs / SUP AIP / TFR affecting this airport [VIEW]
Communications frequencies: [VIEW]

Runways:

RWY identifierQFULength (ft)Width (ft)SurfaceLDA (ft)
052080100GRASS
232080100GRASS
15336050ASPH
33336050ASPH

Airport contact information

Address: Montague United States

Other aviation service providers

Flight schools

Montague Soaring Center

Montague Soaring Center

Satellite view of 1O5